createdAt,value
2023-02-14T00:01:20.612Z,102926.44
2023-02-14T00:03:49.400Z,102917.91
2023-02-14T00:06:17.243Z,102921.28
2023-02-14T00:08:44.870Z,102918.47
2023-02-14T00:11:13.871Z,102915.28
2023-02-14T00:14:01.349Z,102916.09
2023-02-14T00:16:28.838Z,102911.44
2023-02-14T00:19:05.556Z,102904.34
2023-02-14T00:21:38.389Z,102911.16
2023-02-14T00:24:08.622Z,102911.63
2023-02-14T00:26:38.596Z,102902.72
2023-02-14T00:29:12.652Z,102899.44
2023-02-14T00:31:40.877Z,102895.56
2023-02-14T00:34:09.210Z,102893.44
2023-02-14T00:36:37.319Z,102892.47
2023-02-14T00:39:06.215Z,102886.63
2023-02-14T00:41:34.068Z,102884.19
2023-02-14T00:44:02.394Z,102888.66
2023-02-14T00:46:29.781Z,102887.69
2023-02-14T00:48:57.425Z,102876.41
2023-02-14T00:51:24.971Z,102883.81
2023-02-14T00:53:52.660Z,102885.44
2023-02-14T00:56:20.975Z,102883.00
2023-02-14T00:58:48.728Z,102875.56
2023-02-14T01:01:19.158Z,102874.88
2023-02-14T01:03:46.847Z,102885.56
2023-02-14T01:06:14.430Z,102882.03
2023-02-14T01:08:41.893Z,102867.59
2023-02-14T01:11:16.924Z,102866.78
2023-02-14T01:13:47.851Z,102866.97
2023-02-14T01:16:17.990Z,102860.19
2023-02-14T01:18:46.444Z,102855.38
2023-02-14T01:21:27.677Z,102849.78
2023-02-14T01:23:58.844Z,102849.66
2023-02-14T01:26:27.463Z,102846.13
2023-02-14T01:28:56.032Z,102842.81
2023-02-14T01:31:26.566Z,102841.19
2023-02-14T01:33:54.747Z,102842.75
2023-02-14T01:36:29.929Z,102833.53
2023-02-14T01:39:00.326Z,102834.81
2023-02-14T01:41:31.384Z,102842.91
2023-02-14T01:44:02.088Z,102832.00
2023-02-14T01:46:32.546Z,102824.78
2023-02-14T01:49:09.188Z,102817.06
2023-02-14T01:51:41.178Z,102820.16
2023-02-14T01:54:09.151Z,102805.72
2023-02-14T01:56:41.544Z,102813.44
2023-02-14T01:59:12.694Z,102807.38
2023-02-14T02:01:44.227Z,102789.09
2023-02-14T02:04:15.905Z,102799.63
2023-02-14T02:06:47.127Z,102791.91
2023-02-14T02:09:27.537Z,102791.06
2023-02-14T02:11:55.431Z,102785.19
2023-02-14T02:14:23.669Z,102788.72
2023-02-14T02:17:10.257Z,102785.56
2023-02-14T02:20:10.904Z,102776.16
2023-02-14T02:23:19.466Z,102781.06
2023-02-14T02:26:15.304Z,102765.44
2023-02-14T02:29:09.520Z,102767.56
2023-02-14T02:31:45.268Z,102763.75
2023-02-14T02:34:40.307Z,102762.53
2023-02-14T02:37:28.741Z,102761.44
2023-02-14T02:40:07.969Z,102757.22
2023-02-14T02:43:16.647Z,102755.59
2023-02-14T02:46:14.692Z,102756.44
2023-02-14T02:48:59.732Z,102757.25
2023-02-14T02:52:18.885Z,102752.09
2023-02-14T02:54:55.547Z,102759.06
2023-02-14T02:57:29.648Z,102760.06
2023-02-14T02:59:59.079Z,102765.06
2023-02-14T03:02:57.332Z,102752.75
2023-02-14T03:05:27.364Z,102762.59
2023-02-14T03:07:54.744Z,102755.91
2023-02-14T03:10:27.365Z,102750.88
2023-02-14T03:13:19.734Z,102756.41
2023-02-14T03:15:51.524Z,102757.84
2023-02-14T03:18:22.062Z,102763.88
2023-02-14T03:20:55.648Z,102774.50
2023-02-14T03:23:32.226Z,102770.84
2023-02-14T03:26:01.136Z,102767.09
2023-02-14T03:28:45.862Z,102771.44
2023-02-14T03:31:33.546Z,102770.75
2023-02-14T03:34:14.577Z,102778.19
2023-02-14T03:36:50.701Z,102773.47
2023-02-14T03:39:27.103Z,102779.69
2023-02-14T03:42:06.190Z,102793.22
2023-02-14T03:44:36.429Z,102787.97
2023-02-14T03:47:13.736Z,102795.75
2023-02-14T03:49:46.866Z,102797.66
2023-02-14T03:52:15.639Z,102799.63
2023-02-14T03:54:46.429Z,102798.53
2023-02-14T03:57:20.792Z,102794.91
2023-02-14T03:59:48.735Z,102800.28
2023-02-14T04:02:21.705Z,102801.19
2023-02-14T04:04:51.674Z,102807.94
2023-02-14T04:07:22.303Z,102805.75
2023-02-14T04:09:50.544Z,102802.75
2023-02-14T04:12:32.353Z,102799.25
2023-02-14T04:15:03.816Z,102792.72
2023-02-14T04:17:50.045Z,102801.09
2023-02-14T04:20:17.482Z,102798.16
2023-02-14T04:22:46.416Z,102788.78
2023-02-14T04:25:14.622Z,102794.97
2023-02-14T04:28:01.144Z,102795.56
2023-02-14T04:30:28.558Z,102796.19
2023-02-14T04:32:55.887Z,102802.50
2023-02-14T04:35:23.229Z,102801.81
2023-02-14T04:37:50.544Z,102810.34
2023-02-14T04:40:18.056Z,102809.13
2023-02-14T04:42:46.496Z,102799.13
2023-02-14T04:45:14.710Z,102803.28
2023-02-14T04:47:42.036Z,102796.75
2023-02-14T04:50:10.142Z,102806.91
2023-02-14T04:52:37.672Z,102805.69
2023-02-14T04:55:05.869Z,102799.56
2023-02-14T04:57:33.246Z,102786.53
2023-02-14T05:00:00.874Z,102786.38
2023-02-14T05:02:28.195Z,102784.69
2023-02-14T05:04:55.545Z,102786.03
2023-02-14T05:07:22.828Z,102773.97
2023-02-14T05:09:50.201Z,102780.56
2023-02-14T05:12:17.581Z,102780.72
2023-02-14T05:14:45.341Z,102782.44
2023-02-14T05:17:12.806Z,102782.66
2023-02-14T05:19:40.301Z,102777.28
2023-02-14T05:22:07.621Z,102771.91
2023-02-14T05:24:37.340Z,102774.06
2023-02-14T05:27:04.645Z,102770.69
2023-02-14T05:29:31.973Z,102779.84
2023-02-14T05:31:59.503Z,102781.66
2023-02-14T05:34:27.014Z,102793.22
2023-02-14T05:36:54.972Z,102793.34
2023-02-14T05:39:24.373Z,102796.44
2023-02-14T05:41:51.662Z,102795.41
2023-02-14T05:44:19.093Z,102797.56
2023-02-14T05:46:46.401Z,102809.00
2023-02-14T05:49:13.959Z,102799.44
2023-02-14T05:51:41.298Z,102803.44
2023-02-14T05:54:10.866Z,102811.47
2023-02-14T05:56:38.479Z,102801.78
2023-02-14T05:59:05.865Z,102814.00
2023-02-14T06:01:33.256Z,102815.25
2023-02-14T06:04:00.730Z,102816.06
2023-02-14T06:06:28.083Z,102808.50
2023-02-14T06:08:55.514Z,102815.50
2023-02-14T06:11:22.833Z,102804.13
2023-02-14T06:13:50.233Z,102811.56
2023-02-14T06:16:18.479Z,102821.50
2023-02-14T06:18:45.782Z,102821.28
2023-02-14T06:21:13.180Z,102816.75
2023-02-14T06:23:40.662Z,102829.31
2023-02-14T06:26:08.070Z,102829.91
2023-02-14T06:28:35.414Z,102833.78
2023-02-14T06:31:03.413Z,102826.75
2023-02-14T06:33:32.376Z,102827.34
2023-02-14T06:35:59.840Z,102835.22
2023-02-14T06:38:27.185Z,102819.28
2023-02-14T06:40:54.629Z,102832.66
2023-02-14T06:43:22.060Z,102828.53
2023-02-14T06:45:49.450Z,102817.75
2023-02-14T06:48:16.884Z,102825.91
2023-02-14T06:50:44.259Z,102820.59
2023-02-14T06:53:11.663Z,102827.59
2023-02-14T06:55:43.781Z,102816.50
2023-02-14T06:58:11.562Z,102817.75
2023-02-14T07:00:39.847Z,102826.81
2023-02-14T07:03:08.023Z,102829.25
2023-02-14T07:05:35.812Z,102819.88
2023-02-14T07:08:03.417Z,102828.22
2023-02-14T07:10:30.736Z,102832.44
2023-02-14T07:12:58.092Z,102830.44
2023-02-14T07:15:25.482Z,102826.75
2023-02-14T07:17:53.044Z,102825.25
2023-02-14T07:20:20.397Z,102824.28
2023-02-14T07:22:49.834Z,102828.53
2023-02-14T07:25:17.644Z,102827.28
2023-02-14T07:27:45.004Z,102825.75
2023-02-14T07:30:12.916Z,102818.72
2023-02-14T07:32:42.034Z,102819.16
2023-02-14T07:35:09.972Z,102820.69
2023-02-14T07:37:37.375Z,102818.19
2023-02-14T07:40:08.764Z,102819.38
2023-02-14T07:42:41.603Z,102810.19
2023-02-14T07:45:20.764Z,102810.44
2023-02-14T07:47:50.696Z,102800.97
2023-02-14T07:50:18.968Z,102797.56
2023-02-14T07:52:46.589Z,102793.72
2023-02-14T07:55:14.315Z,102799.72
2023-02-14T07:57:41.808Z,102789.94
2023-02-14T08:00:09.689Z,102789.13
2023-02-14T08:02:40.150Z,102791.25
2023-02-14T08:05:07.984Z,102782.56
2023-02-14T08:07:35.592Z,102783.22
2023-02-14T08:10:02.917Z,102784.84
2023-02-14T08:12:48.514Z,102785.44
2023-02-14T08:15:35.389Z,102781.94
2023-02-14T08:18:02.943Z,102784.13
2023-02-14T08:20:30.213Z,102790.28
2023-02-14T08:22:58.260Z,102785.56
2023-02-14T08:25:43.918Z,102784.69
2023-02-14T08:28:11.473Z,102784.38
2023-02-14T08:30:38.878Z,102784.16
2023-02-14T08:33:07.286Z,102781.38
2023-02-14T08:35:35.653Z,102792.44
2023-02-14T08:38:03.754Z,102791.41
2023-02-14T08:40:31.523Z,102782.63
2023-02-14T08:42:58.921Z,102774.16
2023-02-14T08:45:26.495Z,102774.91
2023-02-14T08:47:53.963Z,102772.78
2023-02-14T08:50:21.477Z,102773.53
2023-02-14T08:52:49.607Z,102774.00
2023-02-14T08:55:17.431Z,102773.25
2023-02-14T08:57:44.886Z,102784.09
2023-02-14T09:00:32.125Z,102776.66
2023-02-14T09:02:59.999Z,102775.19
2023-02-14T09:05:27.811Z,102770.94
2023-02-14T09:07:56.653Z,102773.88
2023-02-14T09:10:26.856Z,102774.88
2023-02-14T09:12:54.300Z,102773.03
2023-02-14T09:15:21.694Z,102764.56
2023-02-14T09:17:49.061Z,102766.94
2023-02-14T09:20:16.555Z,102772.28
2023-02-14T09:22:44.096Z,102769.44
2023-02-14T09:25:12.753Z,102772.88
2023-02-14T09:27:40.308Z,102768.56
2023-02-14T09:30:09.387Z,102761.88
2023-02-14T09:32:36.857Z,102769.97
2023-02-14T09:35:04.307Z,102753.94
2023-02-14T09:37:50.016Z,102755.25
2023-02-14T09:40:20.114Z,102752.75
2023-02-14T09:42:53.377Z,102743.88
2023-02-14T09:45:24.947Z,102745.63
2023-02-14T09:48:07.539Z,102748.69
2023-02-14T09:50:54.630Z,102745.50
2023-02-14T09:53:25.319Z,102737.09
2023-02-14T09:56:17.117Z,102743.34
2023-02-14T09:59:05.012Z,102738.09
2023-02-14T10:01:54.459Z,102735.31
2023-02-14T10:04:30.688Z,102731.03
2023-02-14T10:07:12.192Z,102733.72
2023-02-14T10:09:54.573Z,102734.47
2023-02-14T10:12:34.176Z,102731.56
2023-02-14T10:15:10.752Z,102726.41
2023-02-14T10:17:47.416Z,102712.06
2023-02-14T10:20:21.933Z,102710.03
2023-02-14T10:23:05.603Z,102704.97
2023-02-14T10:25:48.407Z,102704.09
2023-02-14T10:28:28.247Z,102703.94
2023-02-14T10:31:13.752Z,102696.59
2023-02-14T10:33:45.353Z,102683.47
2023-02-14T10:36:32.109Z,102696.00
2023-02-14T10:39:12.733Z,102696.81
2023-02-14T10:41:40.033Z,102689.13
2023-02-14T10:44:28.917Z,102682.81
2023-02-14T10:47:07.160Z,102677.75
2023-02-14T10:49:47.474Z,102684.06
2023-02-14T10:52:25.885Z,102666.78
2023-02-14T10:54:56.969Z,102662.53
2023-02-14T10:57:31.531Z,102666.00
2023-02-14T11:00:06.837Z,102663.75
2023-02-14T11:02:40.089Z,102657.44
2023-02-14T11:05:10.422Z,102652.09
2023-02-14T11:07:37.747Z,102650.75
2023-02-14T11:10:14.006Z,102647.50
2023-02-14T11:12:41.881Z,102645.31
2023-02-14T11:15:09.264Z,102643.28
2023-02-14T11:17:37.466Z,102631.25
2023-02-14T11:20:22.327Z,102630.84
2023-02-14T11:22:51.458Z,102623.28
2023-02-14T11:25:23.501Z,102614.97
2023-02-14T11:27:53.761Z,102619.28
2023-02-14T11:30:28.042Z,102604.34
2023-02-14T11:32:56.391Z,102594.91
2023-02-14T11:35:30.390Z,102598.19
2023-02-14T11:37:58.333Z,102585.41
2023-02-14T11:40:27.592Z,102586.38
2023-02-14T11:43:12.861Z,102579.03
2023-02-14T11:45:43.899Z,102575.66
2023-02-14T11:48:36.558Z,102572.38
2023-02-14T11:51:15.669Z,102556.47
2023-02-14T11:53:53.512Z,102562.97
2023-02-14T11:56:22.276Z,102549.16
2023-02-14T11:58:58.640Z,102547.63
2023-02-14T12:01:30.039Z,102539.38
2023-02-14T12:04:01.822Z,102539.75
2023-02-14T12:06:32.375Z,102543.66
2023-02-14T12:09:23.980Z,102532.78
2023-02-14T12:12:19.249Z,102532.44
2023-02-14T12:14:46.893Z,102516.25
2023-02-14T12:17:37.641Z,102520.78
2023-02-14T12:20:14.156Z,102516.56
2023-02-14T12:22:49.851Z,102506.88
2023-02-14T12:25:25.598Z,102508.00
2023-02-14T12:28:03.492Z,102503.44
2023-02-14T12:30:35.241Z,102503.63
2023-02-14T12:33:04.970Z,102495.38
2023-02-14T12:35:54.632Z,102494.72
2023-02-14T12:38:47.203Z,102489.41
2023-02-14T12:41:17.438Z,102490.66
2023-02-14T12:43:56.685Z,102485.50
2023-02-14T12:46:41.425Z,102483.25
2023-02-14T12:49:27.657Z,102472.22
2023-02-14T12:52:15.885Z,102470.94
2023-02-14T12:54:55.614Z,102459.63
2023-02-14T12:57:35.092Z,102451.19
2023-02-14T13:00:24.194Z,102447.94
2023-02-14T13:03:07.066Z,102442.25
2023-02-14T13:05:42.682Z,102439.81
2023-02-14T13:08:34.419Z,102428.94
2023-02-14T13:11:16.460Z,102422.94
2023-02-14T13:13:52.741Z,102421.16
2023-02-14T13:16:44.121Z,102414.97
2023-02-14T13:19:50.033Z,102412.28
2023-02-14T13:22:21.999Z,102399.16
2023-02-14T13:24:58.565Z,102404.97
2023-02-14T13:27:34.488Z,102403.38
2023-02-14T13:30:12.102Z,102406.19
2023-02-14T13:32:42.408Z,102410.09
2023-02-14T13:35:17.418Z,102395.34
2023-02-14T13:37:52.820Z,102399.19
2023-02-14T13:40:26.340Z,102396.97
2023-02-14T13:42:56.968Z,102389.69
2023-02-14T13:45:32.466Z,102386.00
2023-02-14T13:48:22.228Z,102387.28
2023-02-14T13:51:06.231Z,102383.84
2023-02-14T13:53:45.673Z,102381.09
2023-02-14T13:56:13.220Z,102383.06
2023-02-14T13:59:04.498Z,102377.06
2023-02-14T14:01:42.843Z,102379.31
2023-02-14T14:04:28.438Z,102374.78
2023-02-14T14:07:04.791Z,102375.63
2023-02-14T14:09:44.463Z,102372.66
2023-02-14T14:12:27.073Z,102365.06
2023-02-14T14:15:06.381Z,102371.44
2023-02-14T14:17:40.400Z,102369.81
2023-02-14T14:20:16.391Z,102362.72
2023-02-14T14:22:58.671Z,102363.50
2023-02-14T14:25:31.757Z,102358.31
2023-02-14T14:28:00.369Z,102352.94
2023-02-14T14:30:32.993Z,102353.28
2023-02-14T14:33:26.155Z,102352.16
2023-02-14T14:35:54.365Z,102357.97
2023-02-14T14:38:22.453Z,102357.66
2023-02-14T14:40:51.331Z,102356.69
2023-02-14T14:43:31.581Z,102347.25
2023-02-14T14:46:02.267Z,102350.16
2023-02-14T14:48:38.874Z,102347.25
2023-02-14T14:51:08.962Z,102346.56
2023-02-14T14:53:59.989Z,102343.31
2023-02-14T14:56:31.154Z,102340.41
2023-02-14T14:59:15.376Z,102338.81
2023-02-14T15:01:44.140Z,102335.59
2023-02-14T15:04:16.003Z,102330.75
2023-02-14T15:06:43.688Z,102337.81
2023-02-14T15:09:16.905Z,102334.78
2023-02-14T15:12:05.008Z,102333.00
2023-02-14T15:14:36.390Z,102336.34
2023-02-14T15:17:13.207Z,102335.31
2023-02-14T15:19:44.210Z,102331.44
2023-02-14T15:22:19.705Z,102330.50
2023-02-14T15:24:48.100Z,102330.47
2023-02-14T15:27:18.141Z,102324.50
2023-02-14T15:30:00.420Z,102332.16
2023-02-14T15:32:32.049Z,102327.47
2023-02-14T15:35:03.152Z,102327.38
2023-02-14T15:37:32.319Z,102329.28
2023-02-14T15:40:01.734Z,102328.56
2023-02-14T15:42:33.060Z,102329.47
2023-02-14T15:45:19.243Z,102324.91
2023-02-14T15:47:49.433Z,102325.00
2023-02-14T15:50:24.395Z,102326.50
2023-02-14T15:53:02.379Z,102322.97
2023-02-14T15:55:31.490Z,102322.53
2023-02-14T15:58:06.868Z,102318.75
2023-02-14T16:00:35.061Z,102318.13
2023-02-14T16:03:07.269Z,102319.41
2023-02-14T16:05:34.783Z,102314.09
2023-02-14T16:08:08.048Z,102320.03
2023-02-14T16:10:37.793Z,102318.41
2023-02-14T16:13:18.622Z,102320.19
2023-02-14T16:16:06.603Z,102311.88
2023-02-14T16:18:44.011Z,102326.00
2023-02-14T16:21:15.909Z,102325.72
2023-02-14T16:23:46.052Z,102333.47
2023-02-14T16:26:14.180Z,102327.78
2023-02-14T16:28:43.319Z,102327.88
2023-02-14T16:31:16.457Z,102334.91
2023-02-14T16:33:44.078Z,102338.31
2023-02-14T16:36:30.010Z,102335.06
2023-02-14T16:38:58.256Z,102337.28
2023-02-14T16:41:28.207Z,102336.28
2023-02-14T16:43:59.686Z,102336.56
2023-02-14T16:46:31.647Z,102345.88
2023-02-14T16:48:58.911Z,102353.22
2023-02-14T16:51:29.452Z,102355.00
2023-02-14T16:54:00.369Z,102344.41
2023-02-14T16:56:33.862Z,102355.59
2023-02-14T16:59:01.229Z,102358.81
2023-02-14T17:01:28.782Z,102357.59
2023-02-14T17:03:56.121Z,102363.75
2023-02-14T17:06:27.650Z,102364.13
2023-02-14T17:08:57.156Z,102357.97
2023-02-14T17:11:26.297Z,102362.13
2023-02-14T17:13:54.610Z,102359.00
2023-02-14T17:16:22.516Z,102358.56
2023-02-14T17:18:52.301Z,102359.53
2023-02-14T17:21:21.887Z,102362.06
2023-02-14T17:23:49.755Z,102358.53
2023-02-14T17:26:18.801Z,102361.25
2023-02-14T17:28:46.666Z,102369.22
2023-02-14T17:31:14.371Z,102370.44
2023-02-14T17:33:41.785Z,102365.75
2023-02-14T17:36:12.235Z,102367.53
2023-02-14T17:38:40.569Z,102373.09
2023-02-14T17:41:23.605Z,102364.13
2023-02-14T17:43:52.995Z,102367.69
2023-02-14T17:46:21.058Z,102374.31
2023-02-14T17:48:49.264Z,102378.47
2023-02-14T17:51:20.290Z,102369.81
2023-02-14T17:53:48.474Z,102382.16
2023-02-14T17:56:22.014Z,102372.91
2023-02-14T17:58:51.536Z,102382.22
2023-02-14T18:01:22.687Z,102373.53
2023-02-14T18:03:52.069Z,102371.72
2023-02-14T18:06:19.976Z,102373.44
2023-02-14T18:08:49.901Z,102366.38
2023-02-14T18:11:19.618Z,102374.34
2023-02-14T18:13:47.108Z,102375.44
2023-02-14T18:16:18.053Z,102373.34
2023-02-14T18:18:45.691Z,102374.56
2023-02-14T18:21:15.388Z,102372.94
2023-02-14T18:23:43.358Z,102381.69
2023-02-14T18:26:13.258Z,102381.69
2023-02-14T18:28:41.158Z,102380.63
2023-02-14T18:31:14.549Z,102375.22
2023-02-14T18:33:42.509Z,102379.56
2023-02-14T18:36:15.868Z,102377.66
2023-02-14T18:38:45.305Z,102384.19
2023-02-14T18:41:15.500Z,102381.72
2023-02-14T18:43:44.577Z,102381.47
2023-02-14T18:46:15.065Z,102377.38
2023-02-14T18:48:49.546Z,102380.13
2023-02-14T18:51:23.622Z,102394.84
2023-02-14T18:53:52.347Z,102379.09
2023-02-14T18:56:23.026Z,102385.88
2023-02-14T18:58:53.846Z,102382.34
2023-02-14T19:01:24.236Z,102387.50
2023-02-14T19:03:52.951Z,102386.19
2023-02-14T19:06:22.174Z,102394.88
2023-02-14T19:08:49.566Z,102393.53
2023-02-14T19:11:19.987Z,102395.94
2023-02-14T19:13:50.033Z,102393.22
2023-02-14T19:16:20.834Z,102393.47
2023-02-14T19:18:49.811Z,102393.75
2023-02-14T19:21:20.501Z,102394.56
2023-02-14T19:23:48.524Z,102397.81
2023-02-14T19:26:18.173Z,102400.53
2023-02-14T19:28:47.234Z,102404.88
2023-02-14T19:31:15.563Z,102407.00
2023-02-14T19:33:45.321Z,102403.22
2023-02-14T19:36:17.519Z,102406.16
2023-02-14T19:38:48.213Z,102408.06
2023-02-14T19:41:19.679Z,102408.09
2023-02-14T19:43:48.830Z,102403.75
2023-02-14T19:46:17.836Z,102402.41
2023-02-14T19:48:46.208Z,102412.44
2023-02-14T19:51:21.331Z,102414.59
2023-02-14T19:53:49.735Z,102411.88
2023-02-14T19:56:21.548Z,102411.88
2023-02-14T19:58:50.319Z,102413.50
2023-02-14T20:01:32.981Z,102411.00
2023-02-14T20:04:00.758Z,102412.06
2023-02-14T20:06:29.549Z,102413.94
2023-02-14T20:08:57.393Z,102413.34
2023-02-14T20:11:33.017Z,102401.97
2023-02-14T20:14:01.223Z,102410.63
2023-02-14T20:16:30.909Z,102413.59
2023-02-14T20:19:00.478Z,102426.56
2023-02-14T20:21:28.433Z,102416.25
2023-02-14T20:24:01.065Z,102421.91
2023-02-14T20:26:31.182Z,102427.28
2023-02-14T20:29:00.222Z,102426.66
2023-02-14T20:31:27.557Z,102425.84
2023-02-14T20:33:56.761Z,102427.97
2023-02-14T20:36:24.785Z,102427.41
2023-02-14T20:38:56.492Z,102423.88
2023-02-14T20:41:24.503Z,102426.34
2023-02-14T20:43:52.098Z,102430.31
2023-02-14T20:46:19.960Z,102434.94
2023-02-14T20:48:47.593Z,102434.13
2023-02-14T20:51:17.373Z,102426.84
2023-02-14T20:53:46.360Z,102430.06
2023-02-14T20:56:15.428Z,102420.28
2023-02-14T20:58:43.227Z,102424.63
2023-02-14T21:01:13.298Z,102420.59
2023-02-14T21:04:01.527Z,102423.59
2023-02-14T21:06:32.854Z,102430.28
2023-02-14T21:09:01.583Z,102418.41
2023-02-14T21:11:31.707Z,102416.53
2023-02-14T21:14:01.472Z,102416.53
2023-02-14T21:16:30.188Z,102418.94
2023-02-14T21:18:59.646Z,102413.47
2023-02-14T21:21:35.463Z,102411.28
2023-02-14T21:24:11.948Z,102407.94
2023-02-14T21:26:39.594Z,102412.06
2023-02-14T21:29:08.086Z,102409.88
2023-02-14T21:31:36.282Z,102404.97
2023-02-14T21:34:04.783Z,102401.50
2023-02-14T21:36:35.988Z,102405.09
2023-02-14T21:39:04.956Z,102402.38
2023-02-14T21:41:32.904Z,102400.69
2023-02-14T21:44:02.535Z,102398.19
2023-02-14T21:46:36.034Z,102404.19
2023-02-14T21:49:23.459Z,102406.38
2023-02-14T21:51:51.033Z,102402.41
2023-02-14T21:54:18.426Z,102397.00
2023-02-14T21:56:45.995Z,102402.69
2023-02-14T21:59:13.854Z,102409.47
2023-02-14T22:01:42.820Z,102411.88
2023-02-14T22:04:12.259Z,102414.50
2023-02-14T22:06:41.956Z,102416.63
2023-02-14T22:09:12.302Z,102413.44
2023-02-14T22:11:39.994Z,102409.31
2023-02-14T22:14:07.327Z,102411.19
2023-02-14T22:16:36.806Z,102417.03
2023-02-14T22:19:05.263Z,102421.81
2023-02-14T22:21:33.611Z,102421.25
2023-02-14T22:24:01.550Z,102420.72
2023-02-14T22:26:31.148Z,102417.78
2023-02-14T22:29:00.449Z,102426.19
2023-02-14T22:31:33.260Z,102427.53
2023-02-14T22:34:00.617Z,102423.16
2023-02-14T22:36:27.966Z,102429.13
2023-02-14T22:38:55.346Z,102429.31
2023-02-14T22:41:24.431Z,102425.84
2023-02-14T22:43:53.218Z,102430.19
2023-02-14T22:46:28.261Z,102424.97
2023-02-14T22:48:56.677Z,102433.72
2023-02-14T22:51:28.965Z,102427.97
2023-02-14T22:54:02.041Z,102431.44
2023-02-14T22:56:35.550Z,102425.81
2023-02-14T22:59:06.234Z,102429.28
2023-02-14T23:01:35.183Z,102442.00
2023-02-14T23:04:03.695Z,102436.31
2023-02-14T23:06:33.156Z,102443.56
2023-02-14T23:09:02.126Z,102441.34
2023-02-14T23:11:32.237Z,102437.50
2023-02-14T23:14:18.702Z,102447.78
2023-02-14T23:17:04.942Z,102439.41
2023-02-14T23:19:53.444Z,102443.44
2023-02-14T23:22:27.038Z,102441.25
2023-02-14T23:24:59.678Z,102439.03
2023-02-14T23:27:34.498Z,102435.50
2023-02-14T23:30:03.801Z,102437.59
2023-02-14T23:32:31.238Z,102439.28
2023-02-14T23:34:58.988Z,102432.25
2023-02-14T23:37:26.420Z,102431.13
2023-02-14T23:39:53.768Z,102428.66
2023-02-14T23:42:21.157Z,102427.81
2023-02-14T23:44:50.293Z,102419.09
2023-02-14T23:47:17.768Z,102423.09
2023-02-14T23:49:45.986Z,102422.53
2023-02-14T23:52:13.981Z,102418.94
2023-02-14T23:54:41.493Z,102423.22
2023-02-14T23:57:09.041Z,102414.34
2023-02-14T23:59:36.479Z,102413.00
